Latest Weather Observations for Casey (Wilkins Runway)*

IDT60801

Issued at 7:33 pm EDT Sunday 1 February 2015 (issued every 30 minutes, with the page automatically refreshed every 10 minutes)

About weather observations | Map of weather stations | Latest weather observations for ANT | Other Formats
Station Details ID: 300050 Name: WILKINS RUNWAY EAST Lat: -66.68 Lon: 111.53 Height: 753.0 m
Data from the previous 72 hours. | See also: Recent months for locations in Antarctica
Date/Time
EDT
Temp
°C
App
Temp
°C
Dew
Point
Rel
Hum
%
Delta-T
°C
Wind Press
QNH
hPa
Press
MSL
hPa
Rain
since 9 am
mm
Dir
 
Spd
km/h
Gust
km/h
Spd
kts
Gust
kts
01/07:30pm -5.4 -9.9 -6.5 92 - NW 9 15 5 8 978.7 - -
01/07:00pm -5.1 -9.9 -6.1 93 - WNW 11 17 6 9 978.6 - -
01/06:30pm -5.1 -9.9 -6.2 92 - WNW 11 15 6 8 978.4 - -
01/06:24pm -5.0 -9.8 -6.1 92 - WNW 11 15 6 8 978.4 - -
01/06:00pm -4.9 -9.1 -7.2 84 - WNW 7 11 4 6 978.3 - -
01/05:30pm -5.0 -9.9 -6.7 88 - WNW 11 13 6 7 978.2 - -
01/05:00pm -4.6 -8.7 -7.0 83 - WNW 7 9 4 5 978.0 - -
01/04:44pm -4.2 -7.1 -7.8 76 - CALM 0 4 0 2 978.0 - -
01/04:30pm -4.8 -8.4 -7.5 81 - NW 4 7 2 4 978.0 - -
01/04:27pm -4.8 -8.4 -7.5 81 - NW 4 7 2 4 978.1 - -
01/04:25pm -4.8 -8.4 -7.5 81 - NW 4 6 2 3 978.0 - -
01/04:00pm -4.5 -8.1 -7.7 78 - W 4 6 2 3 977.7 - -
01/03:30pm -5.0 -9.0 -7.4 83 - W 6 9 3 5 977.6 - -
01/03:00pm -5.2 -9.7 -6.7 89 - WNW 9 13 5 7 977.4 - -
01/02:51pm -5.2 -10.4 -6.7 89 - NW 13 13 7 7 977.4 - -
01/02:30pm -5.3 -10.6 -6.8 89 - WNW 13 15 7 8 977.2 - -
01/01:58pm -5.0 -9.5 -6.8 87 - NW 9 11 5 6 977.1 - -
01/01:30pm -5.0 -9.9 -7.0 86 - NNW 11 11 6 6 976.9 - -
01/01:20pm -5.0 -9.9 -7.0 86 - NNW 11 13 6 7 976.9 - -
01/01:14pm -5.1 -10.0 -7.2 85 - NNW 11 13 6 7 977.0 - -
01/01:00pm -4.4 -9.3 -7.0 82 - NNW 11 15 6 8 976.9 - -
01/12:53pm -3.8 -8.7 -7.1 78 - N 11 15 6 8 976.8 - -
01/12:50pm -3.8 -8.7 -7.2 77 - N 11 13 6 7 976.8 - -
01/12:39pm -4.0 -8.9 -7.4 77 - N 11 13 6 7 976.7 - -
01/12:36pm -4.1 -9.0 -7.4 78 - N 11 13 6 7 976.7 - -
01/12:30pm -4.3 -9.2 -7.5 78 - NNE 11 13 6 7 976.7 - -
01/12:03pm -4.6 -9.5 -7.4 81 - NNE 11 15 6 8 976.7 - -
01/12:00pm -4.7 -9.6 -7.4 81 - NNE 11 15 6 8 976.7 - -
01/11:44am -4.6 -9.5 -7.2 82 - NNE 11 13 6 7 976.6 - -
01/11:30am -5.0 -10.3 -7.4 83 - NNE 13 17 7 9 976.5 - -
01/11:00am -5.5 -11.2 -7.6 85 - NE 15 17 8 9 976.2 - -
01/10:30am -5.7 -11.0 -7.7 86 - NE 13 15 7 8 976.2 - -
01/10:00am -5.9 -11.2 -7.1 91 - NE 13 17 7 9 976.1 - -
01/09:30am -6.0 -11.7 -7.5 89 - NE 15 17 8 9 976.0 - -
01/09:00am -6.3 -12.0 -8.0 88 - NE 15 17 8 9 975.9 - -
01/08:30am -6.9 -12.7 -8.4 89 - NE 15 19 8 10 975.9 - -
01/08:08am -7.5 -13.7 -9.1 88 - NE 17 19 9 10 975.7 - -
01/08:00am -7.6 -13.8 -9.4 87 - NE 17 19 9 10 975.7 - -
01/07:30am -7.9 -13.8 -9.7 87 - NE 15 17 8 9 975.5 - -
01/07:08am -8.0 -14.3 -9.8 87 - NE 17 19 9 10 975.5 - -
01/07:00am -7.6 -13.8 -9.4 87 - NE 17 19 9 10 975.4 - -
01/06:50am -7.8 -14.4 -9.6 87 - NE 19 19 10 10 975.4 - -
01/06:30am -7.7 -14.3 -9.5 87 - ENE 19 20 10 11 975.3 - -
01/06:00am -7.2 -13.4 -9.0 87 - NE 17 19 9 10 975.3 - -
01/05:30am -7.5 -13.3 -9.1 88 - ENE 15 17 8 9 975.2 - -
01/05:00am -7.4 -13.6 -9.0 88 - NE 17 17 9 9 975.2 - -
01/04:49am -7.8 -13.7 -9.6 87 - NE 15 17 8 9 975.2 - -
01/04:35am -7.7 -13.9 -9.5 87 - NE 17 17 9 9 975.1 - -
01/04:30am -7.7 -13.9 -9.3 88 - NE 17 17 9 9 975.1 - -
01/04:00am -8.2 -14.5 -9.8 88 - NE 17 19 9 10 975.2 - -
01/03:30am -8.4 -13.5 -9.9 89 - ENE 11 13 6 7 975.3 - -
01/03:00am -7.7 -13.2 -9.2 89 - ENE 13 15 7 8 975.2 - -
01/02:30am -7.5 -12.5 -8.6 92 - ENE 11 13 6 7 975.4 - -
01/02:07am -7.6 -11.9 -8.4 94 - ENE 7 7 4 4 975.4 - -
01/02:00am -7.4 -11.6 -8.2 94 - ENE 7 7 4 4 975.4 - -
01/01:30am -6.8 -10.8 -7.5 95 - NE 6 7 3 4 975.5 - -
01/01:00am -6.4 -9.6 -7.1 95 - E 2 4 1 2 975.6 - -
01/12:30am -5.6 -8.3 -6.3 95 - CALM 0 0 0 0 975.6 - -
01/12:00am -5.6 -8.3 -6.1 96 - CALM 0 0 0 0 975.6 - -
 
Date/Time
EDT
Temp
°C
App
Temp
°C
Dew
Point
Rel
Hum
%
Delta-T
°C
Wind Press
QNH
hPa
Press
MSL
hPa
Rain
since 9 am
mm
Dir
 
Spd
km/h
Gust
km/h
Spd
kts
Gust
kts
31/11:30pm -5.5 -9.3 -5.9 97 - WSW 6 7 3 4 975.5 - -
31/11:00pm -4.7 -8.2 -6.1 90 - W 4 7 2 4 975.6 - -
31/10:55pm -4.7 -8.5 -5.9 91 - WSW 6 7 3 4 975.6 - -
31/10:41pm -4.3 -8.2 -6.6 84 - SW 6 9 3 5 975.7 - -
31/10:30pm -2.8 -6.8 -7.7 69 - E 6 7 3 4 975.7 - -
31/10:00pm -2.6 -7.2 -7.9 67 - E 9 11 5 6 975.7 - -
31/09:30pm -2.1 -7.1 -8.0 64 - E 11 15 6 8 975.6 - -
31/09:00pm -2.7 -8.3 -6.9 73 - E 15 19 8 10 975.6 - -
31/08:30pm -2.6 -8.6 -6.6 74 - E 17 19 9 10 975.6 - -
31/08:00pm -2.4 -8.8 -6.9 71 - E 19 22 10 12 975.5 - -
31/07:30pm -2.4 -7.4 -7.7 67 - E 11 22 6 12 975.5 - -
31/07:00pm -1.7 -7.8 -7.4 65 - E 17 20 9 11 975.5 - -
31/06:30pm -2.1 -7.5 -8.0 64 - ESE 13 30 7 16 975.5 - -
31/06:00pm -2.3 -8.0 -7.4 68 - E 15 32 8 17 975.6 - -
31/05:30pm -2.3 -8.4 -8.0 65 - ESE 17 26 9 14 975.7 - -
31/05:00pm -2.4 -9.4 -6.9 71 - ESE 22 30 12 16 975.8 - -
31/04:30pm -2.5 -9.9 -7.2 70 - ESE 24 30 13 16 975.9 - -
31/04:00pm -2.5 -9.9 -7.4 69 - ESE 24 30 13 16 975.9 - -
31/03:30pm -2.3 -10.1 -7.2 69 - E 26 32 14 17 975.9 - -
31/03:00pm -2.5 -10.7 -7.4 69 - E 28 32 15 17 976.1 - -
31/02:30pm -2.4 -10.5 -7.1 70 - E 28 32 15 17 976.5 - -
31/02:00pm -2.4 -10.9 -6.7 72 - E 30 35 16 19 976.7 - -
31/01:30pm -3.0 -11.1 -7.0 74 - E 28 35 15 19 976.9 - -
31/01:00pm -3.3 -12.2 -6.9 76 - E 32 39 17 21 977.1 - -
31/12:30pm -3.5 -12.4 -7.4 74 - E 32 43 17 23 977.3 - -
31/12:00pm -3.6 -11.8 -7.5 74 - E 28 39 15 21 977.6 - -
31/11:30am -3.5 -11.7 -7.3 75 - ESE 28 39 15 21 977.7 - -
31/11:00am -3.6 -12.5 -7.4 75 - E 32 39 17 21 977.9 - -
31/10:30am -3.9 -12.8 -7.3 77 - ESE 32 39 17 21 978.0 - -
31/10:00am -4.2 -13.3 -7.3 79 - ESE 33 44 18 24 978.2 - -
31/09:36am -3.8 -12.7 -7.4 76 - ESE 32 50 17 27 978.5 - -
31/09:30am -3.7 -12.8 -7.6 74 - ESE 33 50 18 27 978.7 - -
31/09:00am -3.8 -12.7 -7.2 77 - ESE 32 46 17 25 978.6 - -
31/08:30am -4.5 -12.7 -7.6 79 - ESE 28 35 15 19 979.3 - -
31/08:00am -4.4 -13.3 -7.5 79 - ESE 32 41 17 22 979.4 - -
31/07:30am -4.4 -12.6 -7.5 79 - ESE 28 37 15 20 979.7 - -
31/07:00am -4.3 -12.1 -7.4 79 - ESE 26 33 14 18 979.7 - -
31/06:30am -4.1 -12.7 -7.5 77 - ESE 30 39 16 21 980.1 - -
31/06:00am -4.1 -12.2 -7.2 79 - ESE 28 33 15 18 980.4 - -
31/05:30am -4.6 -13.5 -7.4 81 - E 32 39 17 21 980.5 - -
31/05:00am -4.3 -13.4 -7.4 79 - E 33 41 18 22 980.7 - -
31/04:30am -4.6 -13.7 -7.4 81 - E 33 41 18 22 980.8 - -
31/04:00am -4.5 -14.0 -7.3 81 - E 35 39 19 21 981.1 - -
31/03:30am -4.3 -14.1 -7.1 81 - E 37 41 20 22 981.2 - -
31/03:00am -4.2 -14.8 -7.0 81 - E 41 50 22 27 981.3 - -
31/02:30am -4.4 -14.3 -7.3 80 - E 37 48 20 26 981.4 - -
31/02:00am -4.4 -14.3 -7.3 80 - E 37 46 20 25 981.5 - -
31/01:30am -4.3 -13.4 -6.9 82 - E 33 41 18 22 981.8 - -
31/01:00am -4.0 -13.4 -6.9 80 - E 35 43 19 23 981.8 - -
31/12:30am -3.9 -13.3 -6.8 80 - E 35 43 19 23 982.0 - -
31/12:00am -3.6 -13.0 -6.9 78 - E 35 44 19 24 982.3 - -
 
Date/Time
EDT
Temp
°C
App
Temp
°C
Dew
Point
Rel
Hum
%
Delta-T
°C
Wind Press
QNH
hPa
Press
MSL
hPa
Rain
since 9 am
mm
Dir
 
Spd
km/h
Gust
km/h
Spd
kts
Gust
kts
30/11:30pm -3.3 -12.3 -6.6 78 - E 33 54 18 29 982.4 - -
30/11:25pm -3.0 -12.4 -6.8 75 - E 35 54 19 29 982.5 - -
30/11:00pm -3.2 -12.2 -6.5 78 - E 33 48 18 26 982.4 - -
30/10:30pm -2.8 -11.6 -6.4 76 - E 32 39 17 21 982.5 - -
30/10:00pm -3.0 -12.8 -6.6 76 - E 37 50 20 27 982.3 - -
30/09:30pm -3.0 -12.4 -6.3 78 - E 35 43 19 23 982.6 - -
30/09:00pm -2.6 -11.6 -6.2 76 - E 33 43 18 23 982.8 - -
30/08:30pm -2.4 -11.7 -5.7 78 - E 35 39 19 21 983.0 - -
30/08:00pm -2.4 -11.4 -6.2 75 - E 33 43 18 23 983.2 - -
30/07:30pm -2.1 -9.4 -6.3 73 - E 24 30 13 16 983.6 - -
30/07:00pm -1.8 -8.7 -6.0 73 - E 22 28 12 15 983.8 - -
30/06:30pm -1.7 -9.4 -6.1 72 - E 26 32 14 17 984.0 - -
30/06:00pm -1.7 -9.7 -6.1 72 - E 28 35 15 19 984.1 - -
30/05:30pm -1.8 -9.8 -6.2 72 - E 28 35 15 19 984.3 - -
30/05:00pm -2.1 -10.5 -5.9 75 - E 30 35 16 19 984.4 - -
30/04:30pm -1.7 -10.5 -5.9 73 - E 32 35 17 19 984.5 - -
30/04:00pm -2.0 -9.7 -6.4 72 - ENE 26 32 14 17 984.6 - -
30/03:30pm -2.0 -9.7 -6.2 73 - ENE 26 30 14 16 984.8 - -
30/03:00pm -2.2 -8.8 -6.5 72 - ENE 20 26 11 14 985.0 - -
30/02:30pm -2.2 -8.7 -6.4 73 - E 20 24 11 13 985.1 - -
30/02:27pm -2.2 -8.7 -6.2 74 - E 20 24 11 13 985.2 - -
30/02:00pm -3.0 -9.3 -6.3 78 - ENE 19 24 10 13 985.3 - -
30/01:45pm -3.0 -9.0 -6.3 78 - ENE 17 19 9 10 985.4 - -
30/01:30pm -3.2 -9.2 -6.6 77 - ENE 17 22 9 12 985.3 - -
30/01:00pm -3.1 -9.4 -6.2 79 - ENE 19 22 10 12 985.5 - -
30/12:30pm -3.1 -8.7 -6.5 77 - NE 15 20 8 11 985.5 - -
30/12:00pm -3.0 -7.9 -6.8 75 - ENE 11 11 6 6 985.5 - -
30/11:30am -3.7 -9.0 -7.1 77 - ENE 13 15 7 8 985.6 - -
30/11:00am -3.7 -8.6 -6.6 80 - ENE 11 15 6 8 985.7 - -
30/10:30am -4.1 -9.7 -6.5 83 - NE 15 19 8 10 985.7 - -
30/10:00am -4.5 -7.3 -6.8 84 - CALM 0 0 0 0 985.7 - -
30/09:30am -4.8 -7.6 -6.5 88 - CALM 0 0 0 0 985.6 - -
30/09:00am -4.9 -7.6 -6.3 90 - CALM 0 0 0 0 985.6 - -
30/08:30am -5.2 -7.9 -6.4 91 - CALM 0 0 0 0 985.4 - -
30/08:18am -5.1 -7.8 -6.2 92 - CALM 0 0 0 0 985.3 - -
30/08:00am -4.9 -7.6 -5.9 93 - CALM 0 0 0 0 985.4 - -
30/07:30am -4.8 -7.5 -5.6 94 - CALM 0 15 0 8 985.2 - -
30/07:28am -4.8 -7.8 -5.6 94 - NNE 2 15 1 8 985.1 - -
30/07:00am -4.7 -11.5 -5.5 94 - N 22 28 12 15 984.8 - -

Other Formats:

Comma delimited format used in spreadsheet applications
http://www.bom.gov.au/fwo/IDT60803/IDT60803.89615.axf

JavaScript Object Notation format (JSON) in row-major order
http://www.bom.gov.au/fwo/IDT60803/IDT60803.89615.json